Time;durP1;ratioP1;P1;durP2;ratioP2;P2;SDS_P1;SDS_P2;PMS_P1;PMS_P2;Temp;Humidity;BMP_temperature;BMP_pressure;BME280_temperature;BME280_humidity;BME280_pressure;Samples;Min_cycle;Max_cycle;Signal;HPM_P1;HPM_P2
2023/07/30 00:00:51;;;;;;;1.50;1.00;;;22.50;87.70;;;21.49;68.47;99664.09;10292844;28;96542;-87
2023/07/30 00:05:55;;;;;;;1.92;1.30;;;22.40;88.10;;;21.41;68.58;99669.94;10269787;28;96446;-87
2023/07/30 00:10:59;;;;;;;1.58;1.00;;;22.30;88.30;;;21.40;68.33;99672.88;10277717;28;96597;-87
2023/07/30 00:16:03;;;;;;;1.60;1.27;;;22.30;88.50;;;21.39;68.18;99663.94;10277283;28;98343;-87
2023/07/30 00:21:06;;;;;;;1.38;0.90;;;22.30;88.30;;;21.48;67.99;99672.44;10278035;28;96584;-87
2023/07/30 00:26:10;;;;;;;1.77;1.02;;;22.40;88.10;;;21.56;67.13;99669.28;10274887;28;97660;-88
2023/07/30 00:31:14;;;;;;;2.05;1.20;;;22.50;87.70;;;21.68;66.17;99680.78;10277872;28;96476;-86
2023/07/30 00:36:18;;;;;;;2.10;1.20;;;22.50;86.90;;;21.77;65.31;99668.47;10262832;28;98645;-88
2023/07/30 00:41:22;;;;;;;2.05;1.27;;;22.60;86.40;;;21.86;64.66;99664.22;10276404;28;96543;-87
2023/07/30 00:46:25;;;;;;;1.40;1.13;;;22.80;86.00;;;21.95;64.47;99653.78;10292644;28;96390;-87
2023/07/30 00:51:31;;;;;;;2.88;1.33;;;22.80;85.80;;;21.98;64.64;99647.84;10260342;28;96613;-87
2023/07/30 00:56:35;;;;;;;1.70;1.30;;;22.90;85.70;;;22.02;64.48;99645.44;10277010;28;98707;-87
2023/07/30 01:01:42;;;;;;;2.25;1.38;;;22.90;85.70;;;22.02;64.75;99643.56;10256083;28;96598;-87
2023/07/30 01:06:46;;;;;;;2.05;1.23;;;22.90;85.90;;;22.01;65.20;99641.94;10274146;28;97103;-87
2023/07/30 01:11:50;;;;;;;1.85;1.20;;;22.90;86.20;;;22.03;65.80;99631.66;10276543;28;96808;-88
2023/07/30 01:16:54;;;;;;;1.42;1.20;;;22.90;86.60;;;22.05;65.59;99615.97;10276376;28;96644;-88
2023/07/30 01:21:58;;;;;;;1.95;1.20;;;22.90;86.80;;;22.09;65.97;99619.00;10260664;28;96563;-90
2023/07/30 01:27:07;;;;;;;2.47;1.35;;;22.90;87.00;;;22.11;66.03;99617.69;10262018;28;96834;-89
2023/07/30 01:32:12;;;;;;;3.50;1.50;;;23.00;87.20;;;22.10;66.43;99615.25;10237114;28;96533;-88
2023/07/30 01:37:17;;;;;;;2.72;1.30;;;22.90;87.30;;;22.07;66.86;99605.72;10258442;28;96589;-88
2023/07/30 01:42:21;;;;;;;2.00;1.20;;;22.90;87.70;;;22.01;67.07;99595.94;10261607;28;96622;-88
2023/07/30 01:47:24;;;;;;;1.52;1.30;;;22.90;88.10;;;21.91;67.58;99591.25;10261866;28;96563;-88
2023/07/30 01:52:29;;;;;;;1.65;1.20;;;22.80;88.50;;;21.85;68.14;99588.75;10274376;28;96793;-89
2023/07/30 01:57:32;;;;;;;2.15;1.40;;;22.70;89.00;;;21.77;68.52;99583.78;10261764;28;97427;-88
2023/07/30 02:02:36;;;;;;;1.85;1.20;;;22.60;89.30;;;21.72;68.94;99581.88;10280766;28;96590;-87
2023/07/30 02:07:39;;;;;;;3.85;1.48;;;22.60;89.70;;;21.67;69.84;99583.72;10282013;28;96562;-88
2023/07/30 02:12:43;;;;;;;1.80;1.38;;;22.60;90.00;;;21.59;70.34;99599.31;10280608;28;96587;-88
2023/07/30 02:17:47;;;;;;;2.47;1.50;;;22.50;90.20;;;21.49;70.57;99591.09;10282536;28;96343;-87
2023/07/30 02:22:50;;;;;;;2.00;1.30;;;22.40;90.40;;;21.44;70.87;99582.94;10279004;28;96542;-88
2023/07/30 02:27:54;;;;;;;2.58;1.52;;;22.40;90.50;;;21.46;71.07;99585.38;10279843;28;96538;-87
2023/07/30 02:32:57;;;;;;;2.58;1.40;;;22.30;90.60;;;21.47;71.53;99587.00;10261455;28;98035;-88
2023/07/30 02:38:01;;;;;;;2.25;1.40;;;22.40;90.70;;;21.44;71.69;99609.97;10256730;28;96651;-87
2023/07/30 02:43:05;;;;;;;2.42;1.27;;;22.40;90.80;;;21.43;72.10;99610.22;10260039;28;96597;-87
2023/07/30 02:48:08;;;;;;;2.00;1.40;;;22.40;91.10;;;21.40;72.22;99599.91;10275115;28;96436;-87
2023/07/30 02:53:12;;;;;;;2.55;1.70;;;22.40;90.90;;;21.36;72.64;99621.22;10277079;28;99049;-87
2023/07/30 02:58:16;;;;;;;2.33;1.48;;;22.40;91.10;;;21.33;73.07;99609.03;10279784;28;96512;-87
2023/07/30 03:03:19;;;;;;;2.65;1.60;;;22.30;91.10;;;21.31;73.07;99613.06;10279587;28;96637;-87
2023/07/30 03:08:23;;;;;;;6.20;3.20;;;22.30;91.40;;;21.25;73.33;99616.72;10280745;28;96492;-87
2023/07/30 03:13:27;;;;;;;3.10;1.33;;;22.30;91.50;;;21.19;73.67;99617.75;10273571;28;98051;-87
2023/07/30 03:18:31;;;;;;;2.60;1.80;;;22.20;91.60;;;21.16;74.04;99616.34;10239375;28;96576;-87
2023/07/30 03:23:34;;;;;;;3.10;2.13;;;22.20;91.90;;;21.09;74.25;99616.53;10258872;28;96485;-87
2023/07/30 03:28:38;;;;;;;2.85;1.80;;;22.10;92.00;;;20.97;75.08;99613.13;10278849;28;97976;-87
2023/07/30 03:33:44;;;;;;;2.70;1.92;;;22.00;92.50;;;20.89;76.62;99616.28;10279333;28;96687;-88
2023/07/30 03:38:47;;;;;;;3.97;1.92;;;21.90;92.60;;;20.80;76.90;99621.28;10263462;28;98032;-87
2023/07/30 03:43:51;;;;;;;2.58;1.85;;;21.80;92.80;;;20.79;77.02;99626.94;10277878;28;96809;-88
2023/07/30 03:48:54;;;;;;;2.17;1.50;;;21.80;92.90;;;20.79;76.97;99633.16;10279001;28;96495;-88
2023/07/30 03:53:58;;;;;;;3.03;1.75;;;21.80;93.00;;;20.80;77.51;99626.66;10278302;28;96709;-87
2023/07/30 03:59:02;;;;;;;1.75;1.35;;;21.80;93.20;;;20.79;78.16;99626.94;10278204;28;96467;-87
2023/07/30 04:04:05;;;;;;;1.90;1.52;;;21.80;93.40;;;20.83;78.92;99636.19;10277171;28;96570;-90
2023/07/30 04:09:09;;;;;;;3.22;1.58;;;21.80;93.60;;;20.84;79.04;99645.91;10276504;28;96697;-88
2023/07/30 04:14:13;;;;;;;3.20;1.98;;;21.90;93.80;;;20.89;79.19;99647.88;10259054;28;97253;-87
2023/07/30 04:19:16;;;;;;;2.30;1.73;;;21.90;94.10;;;20.94;79.33;99639.84;10237760;28;96625;-87
2023/07/30 04:24:19;;;;;;;2.25;1.90;;;22.00;94.00;;;21.01;79.31;99654.78;10237379;28;96525;-87
2023/07/30 04:29:23;;;;;;;2.28;1.38;;;22.00;94.10;;;21.07;78.79;99648.41;10277714;28;96920;-88
2023/07/30 04:34:27;;;;;;;2.13;1.63;;;22.10;94.00;;;21.11;79.45;99640.59;10277209;28;97156;-87
2023/07/30 04:39:32;;;;;;;2.35;1.60;;;22.10;94.10;;;21.13;79.31;99641.19;10274173;28;97057;-87
2023/07/30 04:44:36;;;;;;;2.55;1.60;;;22.10;94.20;;;21.20;79.71;99643.69;10277473;28;96462;-87
2023/07/30 04:49:40;;;;;;;3.10;1.83;;;22.20;94.40;;;21.25;80.14;99641.88;10269191;28;97436;-87
2023/07/30 04:54:43;;;;;;;5.57;1.70;;;22.30;94.50;;;21.33;80.27;99649.56;10261162;28;96540;-87
2023/07/30 04:59:47;;;;;;;3.00;1.58;;;22.40;94.70;;;21.41;79.95;99661.84;10276946;28;96647;-87
2023/07/30 05:04:51;;;;;;;2.20;1.63;;;22.40;94.70;;;21.46;80.14;99664.56;10276020;28;96499;-87
2023/07/30 05:09:55;;;;;;;2.30;1.40;;;22.50;94.70;;;21.53;80.08;99664.38;10281152;28;96521;-87
2023/07/30 05:14:58;;;;;;;2.40;1.70;;;22.50;94.80;;;21.57;80.02;99663.63;10260937;28;96535;-87
2023/07/30 05:20:02;;;;;;;2.30;1.63;;;22.60;94.90;;;21.63;79.63;99670.72;10258034;28;96587;-87
2023/07/30 05:25:07;;;;;;;1.98;1.42;;;22.60;95.10;;;21.68;79.96;99655.63;10290567;28;96672;-87
2023/07/30 05:30:11;;;;;;;3.55;1.67;;;22.70;94.90;;;21.74;80.05;99646.50;10282859;28;96645;-87
2023/07/30 05:35:15;;;;;;;2.30;1.60;;;22.80;95.00;;;21.77;79.04;99651.41;10283470;28;96550;-88
2023/07/30 05:40:18;;;;;;;2.25;1.52;;;22.70;94.90;;;21.86;77.74;99653.41;10283912;28;96394;-87
2023/07/30 05:45:22;;;;;;;2.63;1.65;;;22.80;94.70;;;21.98;78.84;99649.72;10245040;28;96617;-87
2023/07/30 05:50:25;;;;;;;4.22;1.90;;;22.90;95.00;;;22.05;78.97;99653.03;10290643;28;96558;-87
2023/07/30 05:55:29;;;;;;;3.03;2.00;;;23.10;95.00;;;22.11;79.44;99647.44;10281609;28;96366;-87
2023/07/30 06:00:33;;;;;;;2.95;1.45;;;23.10;95.20;;;22.18;79.29;99650.75;10245513;28;98366;-87
2023/07/30 06:05:41;;;;;;;4.38;2.03;;;23.20;95.00;;;22.27;79.00;99640.28;10241709;28;96468;-88
2023/07/30 06:10:46;;;;;;;2.50;1.60;;;23.40;95.10;;;22.39;78.67;99651.75;10231919;28;97474;-87
2023/07/30 06:15:50;;;;;;;2.63;1.40;;;23.40;94.80;;;22.49;75.58;99645.59;10281735;28;96753;-88
2023/07/30 06:20:54;;;;;;;1.83;1.20;;;23.50;94.30;;;22.58;75.80;99649.44;10265677;28;96561;-88
2023/07/30 06:25:57;;;;;;;3.95;1.98;;;23.50;94.20;;;22.67;74.48;99639.78;10296188;28;97254;-88
2023/07/30 06:31:02;;;;;;;3.05;1.88;;;23.60;94.00;;;22.81;72.25;99642.84;10297414;28;96583;-88
2023/07/30 06:36:06;;;;;;;2.10;1.70;;;23.70;93.40;;;22.96;71.99;99642.13;10275459;28;97092;-88
2023/07/30 06:41:09;;;;;;;2.58;1.60;;;23.90;93.40;;;23.09;71.94;99635.41;10281070;28;96400;-88
2023/07/30 06:46:13;;;;;;;4.40;1.60;;;24.00;93.10;;;23.28;71.13;99638.50;10279482;28;96495;-88
2023/07/30 06:51:20;;;;;;;2.67;1.63;;;24.20;92.80;;;23.46;70.44;99640.75;10287370;28;96545;-87
2023/07/30 06:56:23;;;;;;;2.38;1.40;;;24.40;92.50;;;23.62;69.59;99641.63;10280913;28;96565;-87
2023/07/30 07:01:27;;;;;;;1.85;1.52;;;24.50;92.10;;;23.67;68.30;99634.31;10273605;28;96544;-88
2023/07/30 07:06:31;;;;;;;1.55;1.20;;;24.60;91.80;;;23.75;68.15;99644.66;10276891;28;96527;-88
2023/07/30 07:11:34;;;;;;;2.92;1.35;;;24.70;91.60;;;23.72;68.86;99657.94;10280068;28;97239;-87
2023/07/30 07:16:38;;;;;;;3.35;1.50;;;24.70;91.90;;;23.62;69.08;99671.44;10262085;28;96977;-87
2023/07/30 07:21:42;;;;;;;2.08;1.50;;;24.60;91.90;;;23.41;70.46;99681.41;10264760;28;96554;-88
2023/07/30 07:26:46;;;;;;;2.67;2.00;;;24.40;92.40;;;23.13;73.25;99707.00;10295114;28;96447;-87
2023/07/30 07:31:49;;;;;;;2.30;1.75;;;24.10;93.20;;;22.79;75.49;99720.00;10262717;28;96614;-88
2023/07/30 07:36:53;;;;;;;3.85;1.90;;;23.70;94.00;;;22.42;76.21;99718.09;10295941;28;96499;-87
2023/07/30 07:41:57;;;;;;;3.25;2.08;;;23.40;94.40;;;22.11;79.29;99725.91;10259300;28;96802;-87
2023/07/30 07:47:01;;;;;;;3.17;1.85;;;23.00;95.30;;;21.80;82.02;99742.84;10267051;28;96973;-89
2023/07/30 07:52:05;;;;;;;3.80;2.03;;;22.70;96.30;;;21.50;84.82;99754.09;10279148;28;96397;-87
2023/07/30 07:57:08;;;;;;;2.42;1.95;;;22.40;97.20;;;21.30;86.59;99751.94;10295989;28;96428;-87
2023/07/30 08:02:12;;;;;;;3.65;2.40;;;22.20;97.80;;;21.14;87.94;99748.16;10263037;28;98515;-87
2023/07/30 08:07:16;;;;;;;3.60;2.30;;;22.00;98.60;;;21.05;90.22;99777.50;10278402;28;96515;-87
2023/07/30 08:12:20;;;;;;;4.07;2.58;;;22.00;99.30;;;20.94;92.67;99775.69;10293394;28;96576;-87
2023/07/30 08:17:23;;;;;;;6.97;2.97;;;21.90;99.90;;;20.82;94.44;99783.06;10277007;28;98113;-86
2023/07/30 08:22:27;;;;;;;6.35;2.85;;;21.70;99.90;;;20.68;97.00;99781.72;10269698;28;96540;-87
2023/07/30 08:27:30;;;;;;;4.70;2.90;;;21.60;99.90;;;20.53;98.58;99779.59;10276266;28;96638;-86
2023/07/30 08:32:35;;;;;;;6.80;2.80;;;21.50;99.90;;;20.41;100.00;99774.22;10268634;28;99694;-86
2023/07/30 08:37:42;;;;;;;3.92;2.58;;;21.50;99.90;;;20.40;100.00;99779.88;10290857;28;98682;-87
2023/07/30 08:42:46;;;;;;;6.43;3.75;;;21.40;99.90;;;20.34;100.00;99780.84;10279872;28;96676;-86
2023/07/30 08:47:50;;;;;;;4.70;2.85;;;21.30;99.90;;;20.30;100.00;99785.88;10282241;28;96570;-87
2023/07/30 08:52:55;;;;;;;5.85;3.33;;;21.40;99.90;;;20.22;100.00;99789.00;10284958;28;96458;-87
2023/07/30 08:58:02;;;;;;;6.00;3.55;;;21.30;99.90;;;20.14;100.00;99792.06;10276612;28;96523;-86
2023/07/30 09:03:08;;;;;;;6.70;4.00;;;21.20;99.90;;;20.13;100.00;99780.44;10268423;28;99018;-87
2023/07/30 09:08:12;;;;;;;5.82;3.05;;;21.20;99.90;;;20.10;100.00;99775.53;10285068;28;96438;-87
2023/07/30 09:13:23;;;;;;;9.27;3.97;;;21.20;99.90;;;20.11;100.00;99770.97;10268396;28;96526;-86
2023/07/30 09:18:26;;;;;;;6.72;3.85;;;21.20;99.90;;;20.12;100.00;99764.50;10257822;28;96750;-87
2023/07/30 09:23:30;;;;;;;4.22;3.08;;;21.20;99.90;;;20.14;100.00;99768.59;10294440;28;96459;-89
2023/07/30 09:28:34;;;;;;;4.07;3.30;;;21.10;99.90;;;20.14;100.00;99770.47;10243049;28;96563;-87
2023/07/30 09:33:42;;;;;;;6.20;3.25;;;21.10;99.90;;;20.15;100.00;99777.50;10258452;28;97755;-86
2023/07/30 09:38:46;;;;;;;7.18;3.83;;;21.10;99.90;;;20.14;100.00;99759.69;10258679;28;96480;-86
2023/07/30 09:43:58;;;;;;;3.53;3.20;;;21.10;99.90;;;20.20;100.00;99766.81;10257782;28;96925;-87
2023/07/30 09:49:04;;;;;;;4.80;3.25;;;21.20;99.90;;;20.23;100.00;99748.28;10242590;28;96644;-87
2023/07/30 09:54:13;;;;;;;4.55;3.90;;;21.20;99.90;;;20.32;100.00;99756.78;10242445;28;96815;-86
2023/07/30 09:59:17;;;;;;;3.65;3.00;;;21.30;99.90;;;20.37;100.00;99756.88;10242038;28;96889;-87
2023/07/30 10:04:22;;;;;;;5.55;3.17;;;21.40;99.90;;;20.41;100.00;99752.63;10257174;28;96523;-87
2023/07/30 10:09:32;;;;;;;4.88;3.58;;;21.40;99.90;;;20.48;100.00;99756.03;10263601;28;96846;-87
2023/07/30 10:14:35;;;;;;;3.45;2.83;;;21.50;99.90;;;20.57;100.00;99749.19;10261989;28;96479;-87
2023/07/30 10:19:39;;;;;;;5.13;2.90;;;21.60;99.90;;;20.63;100.00;99746.53;10256669;28;96614;-87
2023/07/30 10:25:07;;;;;;;3.63;3.05;;;21.70;99.90;;;20.67;100.00;99758.50;10226990;28;98297;-87
2023/07/30 10:30:16;;;;;;;4.72;3.63;;;21.70;99.90;;;20.71;100.00;99767.75;10227292;28;96453;-87
2023/07/30 10:35:43;;;;;;;7.27;2.90;;;21.70;99.90;;;20.68;100.00;99760.94;10241316;28;96670;-88
2023/07/30 10:41:16;;;;;;;5.78;2.85;;;21.70;99.90;;;20.68;100.00;99750.16;10256994;28;96562;-87
2023/07/30 10:46:20;;;;;;;5.55;3.20;;;21.70;99.90;;;20.66;100.00;99746.88;10278128;28;97560;-87
2023/07/30 10:51:23;;;;;;;5.40;3.40;;;21.70;99.90;;;20.65;100.00;99744.44;10280710;28;96559;-87
2023/07/30 10:56:27;;;;;;;5.10;2.83;;;21.70;99.90;;;20.61;100.00;99744.09;10295573;28;96657;-88
2023/07/30 11:01:31;;;;;;;3.22;2.40;;;21.70;99.90;;;20.61;100.00;99745.97;10277079;28;98050;-88
2023/07/30 11:06:34;;;;;;;4.72;3.55;;;21.70;99.90;;;20.60;100.00;99752.44;10280338;28;96636;-87
2023/07/30 11:11:42;;;;;;;3.08;2.78;;;21.60;99.90;;;20.58;100.00;99741.91;10290779;28;96566;-88
2023/07/30 11:17:04;;;;;;;3.30;2.92;;;21.60;99.90;;;20.58;100.00;99744.59;10267938;28;96739;-88
2023/07/30 11:22:09;;;;;;;3.80;3.10;;;21.60;99.90;;;20.54;100.00;99738.84;10256257;28;97940;-88
2023/07/30 11:27:13;;;;;;;3.88;2.85;;;21.60;99.90;;;20.43;100.00;99745.09;10278530;28;96772;-88
2023/07/30 11:32:18;;;;;;;5.30;3.08;;;21.40;99.90;;;20.38;100.00;99755.00;10262589;28;96811;-87
2023/07/30 11:37:23;;;;;;;4.10;2.88;;;21.40;99.90;;;20.27;100.00;99767.47;10250563;28;96870;-88
2023/07/30 11:42:29;;;;;;;3.55;2.95;;;21.30;99.90;;;20.14;100.00;99759.69;10270789;28;96680;-88
2023/07/30 11:47:33;;;;;;;6.07;4.45;;;21.20;99.90;;;20.12;100.00;99751.03;10289710;28;97273;-87
2023/07/30 11:52:55;;;;;;;4.35;3.40;;;21.10;99.90;;;20.10;100.00;99731.56;10262419;28;97202;-87
2023/07/30 11:58:00;;;;;;;5.32;4.07;;;21.10;99.90;;;20.14;100.00;99740.78;10281579;28;98262;-88
2023/07/30 12:03:07;;;;;;;4.75;4.05;;;21.10;99.90;;;20.18;100.00;99755.44;10274722;28;96779;-88
2023/07/30 12:08:17;;;;;;;5.15;3.80;;;21.20;99.90;;;20.20;100.00;99758.72;10270798;28;97179;-87
2023/07/30 12:13:21;;;;;;;5.40;4.03;;;21.20;99.90;;;20.21;100.00;99761.19;10280860;28;96590;-87
2023/07/30 12:18:27;;;;;;;5.60;4.18;;;21.20;99.90;;;20.20;100.00;99774.91;10262345;28;96628;-89
2023/07/30 12:23:30;;;;;;;5.03;4.13;;;21.20;99.90;;;20.08;100.00;99752.56;10270014;28;98659;-88
2023/07/30 12:28:34;;;;;;;3.40;2.90;;;21.00;99.90;;;19.90;100.00;99751.69;10274127;28;96636;-89
2023/07/30 12:33:38;;;;;;;3.78;2.42;;;20.90;99.90;;;19.66;100.00;99747.41;10265918;28;98022;-89
2023/07/30 12:38:42;;;;;;;4.65;2.67;;;20.70;99.90;;;19.43;100.00;99727.53;10277931;28;98369;-90
2023/07/30 12:43:49;;;;;;;6.20;3.63;;;20.50;99.90;;;19.34;100.00;99720.84;10281637;28;96621;-89
2023/07/30 12:48:52;;;;;;;4.93;2.80;;;20.40;99.90;;;19.39;100.00;99720.16;10262897;28;96834;-88
2023/07/30 12:53:56;;;;;;;3.35;3.00;;;20.40;99.90;;;19.52;100.00;99707.22;10265467;28;98747;-89
2023/07/30 12:59:00;;;;;;;4.38;3.13;;;20.60;99.90;;;19.72;100.00;99696.06;10279189;28;96697;-89
2023/07/30 13:04:03;;;;;;;4.20;2.78;;;20.80;99.90;;;20.00;100.00;99695.25;10263698;28;97003;-89
2023/07/30 13:09:07;;;;;;;3.20;2.35;;;21.10;99.90;;;20.25;100.00;99691.38;10279375;28;98518;-89
2023/07/30 13:14:11;;;;;;;2.92;1.80;;;21.40;99.90;;;20.37;100.00;99683.19;10268365;28;96654;-90
2023/07/30 13:19:15;;;;;;;2.55;1.98;;;21.50;99.90;;;20.51;100.00;99676.44;10270022;28;97616;-90
2023/07/30 13:24:18;;;;;;;3.22;2.03;;;21.60;99.90;;;20.87;100.00;99663.47;10273072;28;96728;-91
2023/07/30 13:29:22;;;;;;;2.95;1.85;;;22.10;99.90;;;21.37;100.00;99649.88;10271609;28;97415;-91
2023/07/30 13:34:25;;;;;;;2.75;2.25;;;22.80;99.90;;;21.72;100.00;99641.38;10270349;28;96698;-91
2023/07/30 15:35:34;;;;;;;2.75;1.40;;;28.00;93.10;;;24.67;69.48;99533.34;10529896;27;1426699;-79
2023/07/30 15:40:38;;;;;;;2.10;1.30;;;26.10;95.00;;;23.97;73.08;99530.44;10500155;27;96544;-78
2023/07/30 15:45:45;;;;;;;1.77;1.40;;;25.30;96.40;;;23.40;76.00;99539.59;10487788;27;96696;-77
2023/07/30 15:50:49;;;;;;;2.65;1.75;;;24.70;97.50;;;22.89;81.26;99549.44;10501484;27;98397;-79
2023/07/30 15:55:53;;;;;;;2.00;1.50;;;24.10;99.30;;;22.47;85.40;99554.88;10495054;27;96649;-79
2023/07/30 16:18:50;;;;;;;1.88;1.63;;;22.50;99.90;;;21.41;98.53;99572.63;10401676;28;98355;-79
2023/07/30 16:23:54;;;;;;;3.13;1.67;;;22.30;99.90;;;21.33;99.41;99546.88;10334372;28;97098;-79
2023/07/30 16:28:57;;;;;;;3.60;1.70;;;22.30;99.90;;;21.30;100.00;99554.69;10356833;28;96714;-79
2023/07/30 16:34:01;;;;;;;2.42;1.55;;;22.30;99.90;;;21.54;100.00;99563.31;10384528;27;96857;-79
2023/07/30 16:39:05;;;;;;;2.42;1.40;;;22.50;99.90;;;22.12;98.86;99564.38;10335608;28;97976;-79
2023/07/30 16:44:08;;;;;;;3.25;1.50;;;23.20;99.90;;;22.42;92.27;99561.06;10347149;28;96725;-79
2023/07/30 16:49:12;;;;;;;1.45;1.10;;;23.60;99.90;;;22.40;89.56;99568.66;10356272;28;98149;-79
2023/07/30 16:54:16;;;;;;;2.83;1.70;;;23.60;99.90;;;22.27;89.06;99561.00;10349370;28;96493;-79
2023/07/30 16:59:19;;;;;;;1.90;1.40;;;23.50;99.90;;;22.17;90.79;99577.94;10354678;28;100304;-80
2023/07/30 17:04:23;;;;;;;2.33;1.20;;;23.30;99.90;;;22.08;91.51;99591.13;10353175;28;98832;-78
2023/07/30 17:09:27;;;;;;;1.60;1.25;;;23.20;99.90;;;22.04;91.18;99583.78;10345118;28;97635;-78
2023/07/30 17:14:31;;;;;;;2.50;1.60;;;23.20;99.90;;;22.02;92.39;99597.56;10342553;28;96756;-78
2023/07/30 17:19:35;;;;;;;2.63;1.52;;;23.10;99.90;;;22.02;91.97;99604.88;10360156;28;97281;-78
2023/07/30 17:24:40;;;;;;;1.60;1.40;;;23.10;99.90;;;22.02;91.96;99615.69;10349929;28;96807;-80
2023/07/30 17:29:43;;;;;;;2.55;1.08;;;23.20;99.90;;;22.03;92.91;99610.00;10323663;28;96704;-78
2023/07/30 17:34:47;;;;;;;1.33;1.20;;;23.20;99.90;;;22.08;94.25;99611.94;10324884;28;96587;-78
2023/07/30 17:39:50;;;;;;;2.90;1.45;;;23.20;99.90;;;22.04;93.27;99614.34;10330885;28;97137;-80
2023/07/30 17:44:54;;;;;;;4.03;1.20;;;23.20;99.90;;;21.96;92.16;99624.84;10337704;28;96906;-80
2023/07/30 17:49:57;;;;;;;2.42;1.70;;;23.20;99.90;;;21.82;92.13;99629.81;10322984;28;98298;-80
2023/07/30 17:55:01;;;;;;;2.45;1.70;;;23.00;99.90;;;21.61;92.98;99623.41;10333965;28;96981;-79
2023/07/30 18:00:08;;;;;;;1.52;1.40;;;22.80;99.90;;;21.42;94.52;99641.84;10328900;28;97238;-80
2023/07/30 18:05:12;;;;;;;1.60;1.08;;;22.50;99.90;;;21.24;95.79;99652.94;10301782;28;97009;-79
2023/07/30 18:10:22;;;;;;;2.78;1.40;;;22.30;99.90;;;21.06;97.19;99648.66;10321949;28;98260;-80
2023/07/30 18:15:26;;;;;;;1.58;1.10;;;22.20;99.90;;;20.94;98.76;99656.88;10328492;28;98201;-80
2023/07/30 18:20:31;;;;;;;2.80;1.20;;;22.10;99.90;;;20.85;99.92;99655.63;10317642;28;97258;-79
2023/07/30 18:25:35;;;;;;;4.95;1.55;;;22.00;99.90;;;20.77;100.00;99665.00;10323874;28;96698;-80
2023/07/30 18:30:38;;;;;;;2.38;1.60;;;21.90;99.90;;;20.67;100.00;99678.31;10333422;28;97431;-80
2023/07/30 18:35:42;;;;;;;2.80;1.50;;;21.80;99.90;;;20.58;100.00;99664.44;10329149;28;96590;-80
2023/07/30 18:40:46;;;;;;;3.30;1.77;;;21.70;99.90;;;20.52;100.00;99670.81;10360937;28;98148;-80
2023/07/30 18:45:49;;;;;;;3.80;1.83;;;21.70;99.90;;;20.46;100.00;99676.38;10345655;28;98557;-80
2023/07/30 18:50:53;;;;;;;2.90;2.20;;;21.60;99.90;;;20.37;100.00;99678.63;10325709;28;98368;-80
2023/07/30 18:55:56;;;;;;;2.13;1.60;;;21.50;99.90;;;20.25;100.00;99685.97;10319967;28;96945;-80
2023/07/30 19:01:00;;;;;;;2.97;1.88;;;21.40;99.90;;;20.16;100.00;99695.53;10333523;28;97855;-80
2023/07/30 19:06:04;;;;;;;2.47;1.95;;;21.30;99.90;;;20.07;100.00;99705.88;10330117;28;96714;-80
2023/07/30 19:11:07;;;;;;;4.05;2.00;;;21.20;99.90;;;19.97;100.00;99721.88;10321424;28;96473;-81
2023/07/30 19:16:11;;;;;;;4.20;2.08;;;21.10;99.90;;;19.91;100.00;99717.44;10314738;28;97183;-82
2023/07/30 19:21:16;;;;;;;2.10;1.60;;;21.00;99.90;;;19.94;100.00;99725.06;10329962;28;98120;-81
2023/07/30 19:26:20;;;;;;;4.55;2.05;;;21.00;99.90;;;19.93;100.00;99715.34;10319121;28;96617;-81
2023/07/30 19:31:24;;;;;;;2.40;1.85;;;21.10;99.90;;;19.92;100.00;99714.53;10310561;28;96454;-80
2023/07/30 19:36:28;;;;;;;3.00;1.90;;;21.10;99.90;;;19.89;100.00;99709.59;10316490;28;96887;-81
2023/07/30 19:41:32;;;;;;;2.50;2.10;;;21.10;99.90;;;19.84;100.00;99711.38;10327623;28;96648;-80
2023/07/30 19:46:36;;;;;;;2.60;2.05;;;21.10;99.90;;;19.80;100.00;99715.63;10294022;28;96716;-80
2023/07/30 19:51:40;;;;;;;2.28;1.80;;;21.00;99.90;;;19.80;100.00;99716.44;10331508;28;96610;-80
2023/07/30 19:56:44;;;;;;;3.15;1.65;;;20.90;99.90;;;19.78;100.00;99713.97;10356218;28;96460;-80
2023/07/30 20:01:47;;;;;;;3.47;1.90;;;21.00;99.90;;;19.75;100.00;99713.66;10331135;28;98320;-80
2023/07/30 20:06:53;;;;;;;3.08;1.95;;;20.90;99.90;;;19.67;100.00;99711.31;10336710;28;96563;-80
2023/07/30 20:11:57;;;;;;;4.18;2.25;;;20.80;99.90;;;19.65;100.00;99706.16;10326085;28;98631;-80
2023/07/30 20:17:01;;;;;;;3.85;2.05;;;20.80;99.90;;;19.60;100.00;99689.06;10294181;28;96672;-80
2023/07/30 20:22:05;;;;;;;4.97;2.28;;;20.70;99.90;;;19.60;100.00;99708.75;10314955;28;98047;-80
2023/07/30 20:27:08;;;;;;;2.85;2.10;;;20.70;99.90;;;19.58;100.00;99699.25;10325748;28;96462;-81
2023/07/30 20:32:12;;;;;;;2.85;2.03;;;20.70;99.90;;;19.52;100.00;99699.13;10321221;28;96698;-80
2023/07/30 20:37:15;;;;;;;4.80;2.10;;;20.70;99.90;;;19.45;100.00;99714.63;10324336;28;97396;-81
2023/07/30 20:42:21;;;;;;;6.97;2.47;;;20.70;99.90;;;19.39;100.00;99725.53;10324395;28;97793;-80
2023/07/30 20:47:25;;;;;;;2.50;2.05;;;20.50;99.90;;;19.37;100.00;99722.25;10331462;28;97628;-81
2023/07/30 20:52:29;;;;;;;3.60;2.10;;;20.50;99.90;;;19.37;100.00;99744.63;10332502;28;98001;-80
2023/07/30 20:57:32;;;;;;;3.53;2.38;;;20.50;99.90;;;19.33;100.00;99738.06;10329310;28;96618;-81
2023/07/30 21:02:37;;;;;;;2.92;2.25;;;20.50;99.90;;;19.30;100.00;99746.63;10335891;28;96502;-81
2023/07/30 21:07:41;;;;;;;3.20;2.30;;;20.50;99.90;;;19.21;100.00;99751.56;10317825;28;96666;-80
2023/07/30 21:12:44;;;;;;;4.20;2.35;;;20.40;99.90;;;19.20;100.00;99755.31;10333167;28;98000;-81
2023/07/30 21:17:48;;;;;;;3.92;2.40;;;20.30;99.90;;;19.21;100.00;99756.13;10338040;28;96744;-80
2023/07/30 21:22:52;;;;;;;3.08;2.28;;;20.30;99.90;;;19.21;100.00;99761.50;10333383;28;96654;-81
2023/07/30 21:27:55;;;;;;;3.38;2.72;;;20.30;99.90;;;19.21;100.00;99750.75;10329409;28;98722;-82
2023/07/30 21:33:00;;;;;;;4.97;2.55;;;20.40;99.90;;;19.19;100.00;99758.22;10328367;28;97336;-83
2023/07/30 21:38:05;;;;;;;5.28;2.65;;;20.40;99.90;;;19.14;100.00;99758.94;10337798;28;99105;-83
2023/07/30 21:43:09;;;;;;;2.72;2.05;;;20.30;99.90;;;19.14;100.00;99753.56;10338388;28;96530;-82
2023/07/30 21:48:12;;;;;;;2.70;2.20;;;20.30;99.90;;;19.20;100.00;99754.50;10334361;28;96703;-81
2023/07/30 21:53:18;;;;;;;2.58;2.00;;;20.40;99.90;;;19.19;100.00;99750.13;10336482;28;98153;-81
2023/07/30 21:58:21;;;;;;;2.53;1.90;;;20.40;99.90;;;19.31;100.00;99761.75;10335380;28;96678;-82
2023/07/30 22:03:27;;;;;;;6.28;2.00;;;20.50;99.90;;;19.37;100.00;99754.56;10351907;28;96556;-82
2023/07/30 22:08:30;;;;;;;3.35;1.90;;;20.50;99.90;;;19.38;100.00;99748.16;10348581;28;96862;-82
2023/07/30 22:13:34;;;;;;;2.25;1.83;;;20.60;99.90;;;19.42;100.00;99758.19;10346510;28;96604;-82
2023/07/30 22:18:40;;;;;;;3.13;1.85;;;20.50;99.90;;;19.42;100.00;99766.28;10332344;28;97514;-82
2023/07/30 22:23:44;;;;;;;2.10;1.50;;;20.60;99.90;;;19.40;100.00;99765.72;10337467;28;97658;-82
2023/07/30 22:28:48;;;;;;;6.40;2.78;;;20.60;99.90;;;19.39;100.00;99769.47;10339009;28;96595;-82
2023/07/30 22:33:51;;;;;;;2.72;1.77;;;20.60;99.90;;;19.36;100.00;99769.91;10326596;28;96848;-82
2023/07/30 22:38:55;;;;;;;3.70;1.70;;;20.50;99.90;;;19.24;100.00;99763.72;10315134;28;98323;-83
2023/07/30 22:43:59;;;;;;;2.65;1.75;;;20.40;99.90;;;19.21;100.00;99756.13;10326274;28;96809;-83
2023/07/30 22:49:03;;;;;;;5.45;1.52;;;20.30;99.90;;;19.22;99.47;99761.28;10314880;28;97557;-82
2023/07/30 22:54:06;;;;;;;3.00;1.63;;;20.30;99.90;;;19.28;97.18;99756.81;10336206;28;96779;-82
2023/07/30 22:59:10;;;;;;;1.67;1.38;;;20.40;99.90;;;19.37;94.68;99739.25;10341127;28;97401;-82
2023/07/30 23:04:14;;;;;;;1.92;1.60;;;20.50;99.90;;;19.47;93.39;99752.91;10327640;28;97602;-82
2023/07/30 23:09:21;;;;;;;2.08;1.48;;;20.60;99.90;;;19.49;93.32;99753.53;10322639;28;98732;-81
2023/07/30 23:14:25;;;;;;;2.03;1.58;;;20.70;99.90;;;19.45;93.84;99751.53;10332183;28;97492;-83